Time;durP1;ratioP1;P1;durP2;ratioP2;P2;SDS_P1;SDS_P2;PMS_P1;PMS_P2;Temp;Humidity;BMP_temperature;BMP_pressure;BME280_temperature;BME280_humidity;BME280_pressure;Samples;Min_cycle;Max_cycle;Signal;HPM_P1;HPM_P2
2023/03/19 00:01:06;;;;;;;;;1.50;1.00;;;;;22.81;39.60;100575.66;5100692;27;45330;-74
2023/03/19 00:03:32;;;;;;;;;2.00;2.00;;;;;22.80;39.51;100571.28;5101292;27;45453;-72
2023/03/19 00:05:58;;;;;;;;;2.25;1.50;;;;;22.84;39.41;100582.56;5079868;27;45550;-72
2023/03/19 00:08:23;;;;;;;;;0.00;0.00;;;;;22.83;39.26;100579.03;5116255;27;45423;-72
2023/03/19 00:10:48;;;;;;;;;2.00;2.00;;;;;22.82;39.96;100577.34;5115316;27;72308;-72
2023/03/19 00:13:14;;;;;;;;;4.00;2.00;;;;;22.83;39.30;100576.38;5113807;27;45310;-72
2023/03/19 00:15:39;;;;;;;;;3.00;1.00;;;;;22.83;39.23;100570.19;5088083;27;45311;-72
2023/03/19 00:18:05;;;;;;;;;2.00;0.50;;;;;22.83;39.60;100581.72;5105140;27;45513;-72
2023/03/19 00:20:30;;;;;;;;;1.50;1.00;;;;;22.84;39.50;100585.22;5100669;27;45472;-73
2023/03/19 00:22:56;;;;;;;;;1.50;1.25;;;;;22.81;39.14;100578.31;5105034;27;63538;-72
2023/03/19 00:25:21;;;;;;;;;0.25;0.25;;;;;22.83;39.22;100586.22;5085312;27;45284;-72
2023/03/19 00:27:47;;;;;;;;;0.00;0.00;;;;;22.84;39.37;100593.22;5110788;27;62234;-72
2023/03/19 00:30:13;;;;;;;;;2.25;1.00;;;;;22.77;39.18;100579.56;5099676;27;50635;-73
2023/03/19 00:32:39;;;;;;;;;1.25;1.00;;;;;22.80;39.40;100583.78;5085280;27;45344;-72
2023/03/19 00:35:05;;;;;;;;;1.00;1.00;;;;;22.85;39.38;100597.59;5080682;27;45405;-72
2023/03/19 00:37:31;;;;;;;;;1.25;0.75;;;;;22.80;39.25;100597.97;5093020;27;46593;-72
2023/03/19 00:39:56;;;;;;;;;2.00;1.00;;;;;22.79;39.01;100590.94;5112638;27;45345;-73
2023/03/19 00:42:22;;;;;;;;;0.25;0.25;;;;;22.84;39.03;100607.44;5087675;27;45832;-73
2023/03/19 00:44:47;;;;;;;;;2.00;1.25;;;;;22.84;39.03;100598.56;5106579;27;45408;-73
2023/03/19 00:47:12;;;;;;;;;1.00;0.25;;;;;22.81;39.27;100605.00;5095871;27;77194;-73
2023/03/19 00:49:38;;;;;;;;;1.75;0.25;;;;;22.84;39.23;100606.56;5088121;27;68513;-73
2023/03/19 00:52:03;;;;;;;;;0.25;0.25;;;;;22.82;39.52;100598.69;5094592;27;56547;-73
2023/03/19 00:54:31;;;;;;;;;1.75;1.00;;;;;22.81;39.40;100596.16;5086826;27;45541;-73
2023/03/19 00:56:56;;;;;;;;;0.75;0.75;;;;;22.81;38.77;100598.84;5108208;27;46308;-73
2023/03/19 00:59:24;;;;;;;;;3.50;2.75;;;;;22.84;39.41;100607.44;5111195;27;45505;-72
2023/03/19 01:01:50;;;;;;;;;0.50;0.50;;;;;22.83;38.96;100612.91;5102882;27;45483;-72
2023/03/19 01:04:15;;;;;;;;;0.00;0.00;;;;;22.83;39.01;100608.41;5098395;27;45580;-72
2023/03/19 01:06:40;;;;;;;;;3.00;1.00;;;;;22.81;38.84;100604.16;5085718;27;75122;-72
2023/03/19 01:09:06;;;;;;;;;1.50;1.00;;;;;22.83;39.04;100612.91;5115752;27;45549;-73
2023/03/19 01:11:31;;;;;;;;;0.25;0.25;;;;;22.82;39.06;100612.03;5099128;27;63771;-73
2023/03/19 01:13:56;;;;;;;;;1.00;1.00;;;;;22.82;39.28;100608.50;5106768;27;71582;-73
2023/03/19 01:16:22;;;;;;;;;0.25;0.25;;;;;22.81;38.77;100618.34;5098905;27;50916;-73
2023/03/19 01:18:47;;;;;;;;;2.25;1.00;;;;;22.82;38.99;100616.53;5107418;27;73146;-72
2023/03/19 01:21:13;;;;;;;;;3.50;0.75;;;;;22.82;38.56;100622.69;5084995;27;45445;-72
2023/03/19 01:23:38;;;;;;;;;2.00;0.25;;;;;22.81;38.92;100620.19;5097753;27;45672;-72
2023/03/19 01:26:04;;;;;;;;;2.00;1.00;;;;;22.83;39.23;100618.22;5093516;27;46161;-73
2023/03/19 01:28:29;;;;;;;;;1.00;1.00;;;;;22.81;39.07;100614.84;5108195;27;45395;-73
2023/03/19 01:31:04;;;;;;;;;0.75;0.00;;;;;22.83;38.66;100623.56;5086339;27;45799;-73
2023/03/19 01:33:29;;;;;;;;;1.25;1.00;;;;;22.82;39.06;100617.38;5099051;27;45343;-73
2023/03/19 01:35:56;;;;;;;;;0.75;0.25;;;;;22.81;39.01;100623.69;5091358;27;47687;-73
2023/03/19 01:38:22;;;;;;;;;1.50;1.00;;;;;22.82;38.69;100625.38;5112038;27;45595;-73
2023/03/19 01:40:47;;;;;;;;;2.25;0.50;;;;;22.80;38.65;100627.31;5085830;27;45213;-73
2023/03/19 01:43:17;;;;;;;;;1.25;0.25;;;;;22.82;39.05;100624.53;5111572;27;69751;-72
2023/03/19 01:45:44;;;;;;;;;1.00;1.00;;;;;22.81;39.02;100625.50;5104409;27;45414;-73
2023/03/19 01:48:26;;;;;;;;;2.25;1.00;;;;;22.81;38.48;100617.50;5089840;27;45335;-73
2023/03/19 01:50:54;;;;;;;;;0.50;0.25;;;;;22.81;38.42;100609.50;5086179;27;45331;-73
2023/03/19 01:53:22;;;;;;;;;0.00;0.00;;;;;22.80;38.92;100626.47;5109912;27;45227;-72
2023/03/19 01:55:47;;;;;;;;;1.00;1.00;;;;;22.75;38.33;100610.81;5099199;27;45538;-73
2023/03/19 01:58:13;;;;;;;;;1.25;0.75;;;;;22.81;38.77;100614.84;5119704;27;66654;-73
2023/03/19 02:00:39;;;;;;;;;2.00;0.75;;;;;22.81;38.57;100623.69;5097909;27;56028;-74
2023/03/19 02:03:05;;;;;;;;;1.00;1.00;;;;;22.81;38.61;100620.19;5091620;27;63847;-73
2023/03/19 02:05:33;;;;;;;;;2.00;1.50;;;;;22.80;38.87;100616.63;5088009;27;45462;-74
2023/03/19 02:08:02;;;;;;;;;1.00;1.00;;;;;22.79;39.07;100611.41;5110694;27;45646;-74
2023/03/19 02:10:29;;;;;;;;;3.00;2.00;;;;;22.77;39.02;100608.91;5085631;27;45733;-74
2023/03/19 02:12:54;;;;;;;;;1.25;1.25;;;;;22.77;38.49;100600.03;5093179;27;45855;-74
2023/03/19 02:15:20;;;;;;;;;1.50;1.50;;;;;22.77;38.70;100600.91;5081456;27;47074;-73
2023/03/19 02:17:45;;;;;;;;;1.00;1.00;;;;;22.80;38.54;100597.97;5095759;27;45460;-74
2023/03/19 02:20:13;;;;;;;;;3.25;1.75;;;;;22.80;38.81;100597.13;5112228;27;45559;-73
2023/03/19 02:22:43;;;;;;;;;1.00;1.00;;;;;22.79;38.75;100592.75;5111242;27;45373;-73
2023/03/19 02:25:14;;;;;;;;;1.00;1.00;;;;;22.79;38.35;100590.94;5086073;27;47355;-74
2023/03/19 02:27:40;;;;;;;;;0.25;0.25;;;;;22.78;38.35;100594.56;5070077;27;45986;-73
2023/03/19 02:30:25;;;;;;;;;1.75;1.50;;;;;22.78;38.96;100596.41;5083910;27;45259;-73
2023/03/19 02:32:51;;;;;;;;;0.75;0.75;;;;;22.79;38.93;100603.41;5098985;27;45590;-73
2023/03/19 02:35:16;;;;;;;;;2.00;1.00;;;;;22.79;38.54;100595.41;5101359;27;46120;-73
2023/03/19 02:37:41;;;;;;;;;1.00;1.00;;;;;22.78;38.84;100599.06;5111674;27;45432;-73
2023/03/19 02:40:22;;;;;;;;;0.50;0.50;;;;;22.81;38.70;100607.69;5107591;27;57706;-73
2023/03/19 02:42:47;;;;;;;;;0.25;0.25;;;;;22.83;38.68;100613.72;5093678;27;45473;-73
2023/03/19 02:45:13;;;;;;;;;1.25;1.00;;;;;22.83;38.67;100611.06;5080762;27;66821;-73
2023/03/19 02:47:38;;;;;;;;;1.50;0.25;;;;;22.86;38.80;100617.97;5102871;27;47634;-73
2023/03/19 02:50:05;;;;;;;;;0.75;0.75;;;;;22.88;38.42;100618.72;5107140;27;67749;-73
2023/03/19 02:52:30;;;;;;;;;0.75;0.75;;;;;22.89;38.30;100610.56;5099226;27;45432;-73
2023/03/19 02:54:56;;;;;;;;;0.25;0.25;;;;;22.91;38.84;100615.78;5112167;27;45446;-73
2023/03/19 02:57:21;;;;;;;;;1.00;1.00;;;;;22.91;38.57;100608.63;5111306;27;66990;-73
2023/03/19 02:59:46;;;;;;;;;1.25;1.25;;;;;22.93;38.40;100619.19;5097113;27;68465;-74
2023/03/19 03:02:12;;;;;;;;;1.00;0.25;;;;;22.92;38.25;100615.66;5080825;27;71942;-73
2023/03/19 03:04:37;;;;;;;;;1.00;1.00;;;;;22.93;38.37;100616.53;5095921;27;46152;-73
2023/03/19 03:07:03;;;;;;;;;1.50;1.00;;;;;22.93;38.54;100611.19;5106883;27;60117;-73
2023/03/19 03:09:29;;;;;;;;;1.00;1.00;;;;;22.95;38.78;100617.25;5087449;27;45738;-73
2023/03/19 03:11:55;;;;;;;;;0.25;0.25;;;;;22.97;38.55;100619.78;5095413;27;45470;-73
2023/03/19 03:14:20;;;;;;;;;1.00;1.00;;;;;22.98;38.45;100624.13;5090815;27;46101;-74
2023/03/19 03:16:46;;;;;;;;;3.00;1.00;;;;;22.95;38.45;100617.25;5077857;27;45764;-73
2023/03/19 03:19:12;;;;;;;;;1.25;1.25;;;;;22.96;38.07;100612.75;5098095;27;52165;-73
2023/03/19 03:21:37;;;;;;;;;1.00;1.00;;;;;22.96;37.90;100613.59;5081099;27;45413;-74
2023/03/19 03:24:03;;;;;;;;;1.00;0.25;;;;;22.90;38.01;100609.59;5091488;27;74533;-74
2023/03/19 03:26:28;;;;;;;;;1.75;1.75;;;;;22.90;38.39;100620.28;5094906;27;45443;-74
2023/03/19 03:28:54;;;;;;;;;3.25;2.00;;;;;22.92;38.34;100622.81;5080360;27;45461;-73
2023/03/19 03:31:20;;;;;;;;;1.00;1.00;;;;;22.89;38.32;100609.72;5096598;27;45395;-74
2023/03/19 03:33:45;;;;;;;;;1.50;0.50;;;;;22.87;38.26;100615.16;5095272;27;45325;-74
2023/03/19 03:36:11;;;;;;;;;1.50;0.75;;;;;22.85;38.17;100611.78;5081670;27;45362;-74
2023/03/19 03:38:36;;;;;;;;;0.00;0.00;;;;;22.85;38.23;100616.28;5096253;27;45301;-73
2023/03/19 03:41:02;;;;;;;;;0.25;0.25;;;;;22.86;38.26;100624.16;5104062;27;45558;-74
2023/03/19 03:43:27;;;;;;;;;3.00;1.50;;;;;22.85;38.46;100627.78;5096969;27;45453;-74
2023/03/19 03:45:53;;;;;;;;;0.00;0.00;;;;;22.83;38.44;100621.75;5098273;27;45314;-74
2023/03/19 03:48:18;;;;;;;;;1.25;1.00;;;;;22.83;37.96;100623.56;5117165;27;45518;-74
2023/03/19 03:50:44;;;;;;;;;1.00;1.00;;;;;22.78;38.23;100628.41;5102847;27;72017;-74
2023/03/19 03:53:11;;;;;;;;;0.25;0.00;;;;;22.80;38.40;100629.97;5109219;27;45424;-73
2023/03/19 03:55:37;;;;;;;;;1.50;1.50;;;;;22.78;38.12;100631.09;5095301;27;45496;-73
2023/03/19 03:58:02;;;;;;;;;1.00;0.75;;;;;22.80;38.50;100632.66;5114705;27;52026;-73
2023/03/19 04:00:27;;;;;;;;;2.00;2.00;;;;;22.79;37.96;100636.31;5092573;27;71839;-73
2023/03/19 04:02:53;;;;;;;;;1.50;1.50;;;;;22.75;38.49;100629.50;5076095;27;48329;-72
2023/03/19 04:05:18;;;;;;;;;1.25;1.25;;;;;22.75;38.17;100635.72;5108202;27;70308;-73
2023/03/19 04:07:43;;;;;;;;;1.00;1.00;;;;;22.77;38.21;100632.03;5085563;27;45448;-73
2023/03/19 04:10:10;;;;;;;;;2.75;1.00;;;;;22.75;38.11;100635.72;5093390;27;45438;-73
2023/03/19 04:12:36;;;;;;;;;1.00;1.00;;;;;22.75;38.10;100637.50;5106413;27;46390;-73
2023/03/19 04:15:03;;;;;;;;;1.00;1.00;;;;;22.75;38.02;100642.84;5116313;27;45533;-73
2023/03/19 04:17:29;;;;;;;;;2.50;1.00;;;;;22.73;38.17;100643.00;5092916;27;45604;-73
2023/03/19 04:19:54;;;;;;;;;1.00;0.25;;;;;22.72;37.83;100635.94;5073978;27;45419;-73
2023/03/19 04:22:19;;;;;;;;;1.50;0.50;;;;;22.73;38.29;100644.78;5084434;27;47695;-73
2023/03/19 04:24:45;;;;;;;;;0.25;0.25;;;;;22.70;37.95;100637.88;5096389;27;56630;-73
2023/03/19 04:27:10;;;;;;;;;1.25;1.25;;;;;22.73;38.21;100643.00;5110960;27;45649;-73
2023/03/19 04:29:36;;;;;;;;;1.00;1.00;;;;;22.73;38.20;100644.78;5084247;27;45435;-73
2023/03/19 04:32:01;;;;;;;;;2.75;1.25;;;;;22.70;38.42;100637.88;5107754;27;73680;-73
2023/03/19 04:34:26;;;;;;;;;0.25;0.25;;;;;22.68;38.04;100644.31;5114786;27;45444;-73
2023/03/19 04:36:52;;;;;;;;;3.00;1.00;;;;;22.67;37.92;100642.63;5072397;27;45814;-74
2023/03/19 04:39:18;;;;;;;;;0.25;0.25;;;;;22.69;38.18;100646.00;5096495;27;45332;-73
2023/03/19 04:41:44;;;;;;;;;0.25;0.25;;;;;22.67;38.18;100647.97;5096573;27;48033;-73
2023/03/19 04:44:10;;;;;;;;;0.50;0.50;;;;;22.70;38.38;100653.03;5094569;27;45356;-73
2023/03/19 04:46:35;;;;;;;;;1.00;1.00;;;;;22.69;38.54;100651.34;5098125;27;45616;-73
2023/03/19 04:49:00;;;;;;;;;1.25;1.25;;;;;22.68;37.91;100647.84;5090740;27;47107;-73
2023/03/19 04:51:26;;;;;;;;;1.50;1.50;;;;;22.65;38.27;100637.41;5091208;27;77675;-73
2023/03/19 04:53:51;;;;;;;;;2.00;0.25;;;;;22.65;38.02;100636.56;5080656;27;45280;-73
2023/03/19 04:56:17;;;;;;;;;3.00;0.50;;;;;22.65;38.61;100640.06;5104783;27;46795;-73
2023/03/19 04:58:43;;;;;;;;;0.25;0.25;;;;;22.65;38.25;100641.91;5109050;27;45201;-73
2023/03/19 05:01:08;;;;;;;;;2.00;1.50;;;;;22.63;38.44;100641.16;5106676;27;46486;-73
2023/03/19 05:03:35;;;;;;;;;1.25;0.25;;;;;22.66;38.12;100659.59;5104590;27;45367;-73
2023/03/19 05:06:00;;;;;;;;;1.00;1.00;;;;;22.64;38.29;100656.19;5116213;27;45349;-73
2023/03/19 05:08:25;;;;;;;;;3.00;1.25;;;;;22.64;38.41;100665.03;5096703;27;45366;-74
2023/03/19 05:10:51;;;;;;;;;1.75;0.50;;;;;22.65;38.57;100657.91;5093200;27;74615;-73
2023/03/19 05:13:16;;;;;;;;;0.25;0.25;;;;;22.61;38.61;100654.63;5081245;27;45481;-74
2023/03/19 05:15:43;;;;;;;;;1.25;1.25;;;;;22.63;38.29;100655.34;5106706;27;45345;-74
2023/03/19 05:18:09;;;;;;;;;1.50;1.50;;;;;22.62;37.89;100660.81;5091314;27;45591;-74
2023/03/19 05:20:36;;;;;;;;;4.00;1.00;;;;;22.61;38.14;100670.63;5092342;27;46588;-74
2023/03/19 05:23:01;;;;;;;;;2.50;2.50;;;;;22.62;38.11;100671.47;5090905;27;45438;-73
2023/03/19 05:25:27;;;;;;;;;4.00;2.00;;;;;22.62;38.43;100677.66;5087846;27;45498;-73
2023/03/19 05:27:53;;;;;;;;;4.00;2.00;;;;;22.61;38.12;100669.75;5088790;27;46410;-73
2023/03/19 05:30:18;;;;;;;;;1.00;0.75;;;;;22.59;38.14;100674.38;5102541;27;59855;-73
2023/03/19 05:32:45;;;;;;;;;2.00;2.00;;;;;22.55;38.15;100666.59;5103656;27;45437;-73
2023/03/19 05:35:11;;;;;;;;;4.00;2.00;;;;;22.60;38.51;100676.09;5089415;27;45407;-73
2023/03/19 05:37:37;;;;;;;;;2.00;2.00;;;;;22.60;38.44;100682.25;5095131;27;45499;-73
2023/03/19 05:40:03;;;;;;;;;3.00;2.75;;;;;22.60;38.44;100684.94;5118872;27;46310;-73
2023/03/19 05:42:28;;;;;;;;;4.50;3.00;;;;;22.61;38.36;100688.44;5082569;27;45300;-73
2023/03/19 05:44:54;;;;;;;;;2.00;2.00;;;;;22.60;37.97;100692.09;5097666;27;53493;-73
2023/03/19 05:47:20;;;;;;;;;5.75;4.00;;;;;22.58;37.96;100686.03;5088577;27;45510;-73
2023/03/19 05:49:46;;;;;;;;;3.00;1.75;;;;;22.58;38.68;100688.69;5092534;27;45499;-73
2023/03/19 05:52:11;;;;;;;;;3.50;3.00;;;;;22.59;38.60;100701.88;5090379;27;45501;-73
2023/03/19 05:54:37;;;;;;;;;4.50;3.75;;;;;22.61;38.04;100707.09;5109301;27;52092;-73
2023/03/19 05:57:03;;;;;;;;;2.25;2.25;;;;;22.60;38.63;100708.09;5077710;27;45528;-73
2023/03/19 05:59:28;;;;;;;;;6.00;4.00;;;;;22.56;38.18;100705.66;5090019;27;46385;-73
2023/03/19 06:01:53;;;;;;;;;3.00;2.50;;;;;22.58;38.34;100708.22;5111458;27;45421;-73
2023/03/19 06:04:19;;;;;;;;;3.00;3.00;;;;;22.59;38.34;100706.38;5090259;27;70059;-73
2023/03/19 06:06:44;;;;;;;;;5.50;1.75;;;;;22.58;38.42;100710.03;5114614;27;45670;-73
2023/03/19 06:09:10;;;;;;;;;4.50;3.25;;;;;22.55;38.48;100711.94;5084015;27;45885;-74
2023/03/19 06:11:38;;;;;;;;;2.50;2.50;;;;;22.57;38.32;100722.50;5084055;27;45420;-73
2023/03/19 06:14:03;;;;;;;;;4.50;3.00;;;;;22.58;38.11;100726.88;5092630;27;45414;-73
2023/03/19 06:16:29;;;;;;;;;2.50;2.50;;;;;22.56;38.12;100724.34;5095802;27;45222;-74
2023/03/19 06:18:55;;;;;;;;;2.25;2.00;;;;;22.56;38.24;100727.00;5087331;27;47079;-73
2023/03/19 06:21:20;;;;;;;;;3.00;3.00;;;;;22.58;37.93;100718.03;5095875;27;45339;-73
2023/03/19 06:23:46;;;;;;;;;4.75;3.25;;;;;22.55;38.09;100721.78;5089489;27;45286;-74
2023/03/19 06:26:11;;;;;;;;;3.00;2.00;;;;;22.55;38.24;100724.44;5091775;27;45599;-73
2023/03/19 06:28:36;;;;;;;;;3.00;2.75;;;;;22.56;37.95;100727.00;5081473;27;68554;-73
2023/03/19 06:31:02;;;;;;;;;3.00;3.00;;;;;22.56;38.12;100727.00;5107692;27;45437;-73
2023/03/19 06:33:30;;;;;;;;;3.75;3.75;;;;;22.57;38.35;100730.50;5116063;27;45208;-73
2023/03/19 06:35:56;;;;;;;;;3.00;3.00;;;;;22.55;38.37;100735.13;5094419;27;45501;-72
2023/03/19 06:38:22;;;;;;;;;5.50;2.00;;;;;22.55;37.88;100743.13;5093204;27;45833;-73
2023/03/19 06:40:47;;;;;;;;;5.50;4.00;;;;;22.58;38.08;100744.72;5092096;27;55070;-73
2023/03/19 06:43:12;;;;;;;;;7.00;3.50;;;;;22.58;38.20;100744.72;5116519;27;56485;-72
2023/03/19 06:45:38;;;;;;;;;2.00;2.00;;;;;22.56;37.94;100752.81;5085811;27;45511;-72
2023/03/19 06:48:03;;;;;;;;;4.00;3.25;;;;;22.58;38.28;100748.22;5110180;27;71350;-72
2023/03/19 06:50:29;;;;;;;;;3.00;3.00;;;;;22.57;38.33;100749.19;5084099;27;45449;-72
2023/03/19 06:52:54;;;;;;;;;3.50;3.00;;;;;22.56;38.18;100753.66;5090138;27;45256;-73
2023/03/19 06:55:20;;;;;;;;;3.25;3.00;;;;;22.56;38.05;100767.00;5082382;27;45639;-72
2023/03/19 06:57:49;;;;;;;;;4.00;3.00;;;;;22.56;37.95;100759.00;5079065;27;47183;-72
2023/03/19 07:00:16;;;;;;;;;4.75;3.00;;;;;22.55;38.37;100756.44;5085706;27;47569;-73
2023/03/19 07:02:41;;;;;;;;;2.75;2.75;;;;;22.55;38.26;100754.63;5095981;27;45806;-72
2023/03/19 07:05:07;;;;;;;;;4.75;2.00;;;;;22.58;38.38;100768.72;5094034;27;45387;-72
2023/03/19 07:07:32;;;;;;;;;3.00;3.00;;;;;22.56;38.07;100752.81;5086155;27;46987;-73
2023/03/19 07:09:57;;;;;;;;;5.00;3.50;;;;;22.56;37.86;100766.16;5107982;27;45386;-78
2023/03/19 07:12:26;;;;;;;;;3.00;2.00;;;;;22.47;38.72;100745.50;5068823;27;46485;-86
2023/03/19 07:14:52;;;;;;;;;2.00;2.00;;;;;22.56;38.51;100759.00;5092449;27;46728;-79
2023/03/19 07:17:17;;;;;;;;;3.25;2.75;;;;;22.56;38.73;100764.34;5111809;27;45977;-73
2023/03/19 07:19:42;;;;;;;;;5.00;3.25;;;;;22.56;39.27;100768.84;5112740;27;68722;-72
2023/03/19 07:22:08;;;;;;;;;4.25;3.00;;;;;22.55;38.91;100775.13;5099318;27;45316;-75
2023/03/19 07:24:33;;;;;;;;;4.25;4.25;;;;;22.53;39.10;100772.56;5085112;27;67739;-76
2023/03/19 07:26:58;;;;;;;;;6.75;4.00;;;;;22.52;39.27;100772.69;5086342;27;58370;-71
2023/03/19 07:29:24;;;;;;;;;7.00;3.50;;;;;22.51;39.05;100782.50;5094979;27;65478;-73
2023/03/19 07:31:49;;;;;;;;;5.00;4.00;;;;;22.47;39.13;100770.38;5087645;27;45446;-77
2023/03/19 07:34:15;;;;;;;;;4.00;4.00;;;;;22.46;38.67;100779.34;5084836;27;45582;-76
2023/03/19 07:36:40;;;;;;;;;4.75;3.25;;;;;22.47;38.94;100775.72;5096508;27;48694;-76
2023/03/19 07:39:05;;;;;;;;;4.50;3.00;;;;;22.44;38.82;100775.94;5092525;27;67827;-77
2023/03/19 07:41:31;;;;;;;;;6.25;2.50;;;;;22.42;38.86;100766.38;5083810;27;65936;-80
2023/03/19 07:43:56;;;;;;;;;5.25;3.00;;;;;22.42;38.70;100775.22;5093590;27;71801;-76
2023/03/19 07:46:21;;;;;;;;;5.25;3.25;;;;;22.37;39.18;100767.56;5092694;27;46034;-77
2023/03/19 07:48:47;;;;;;;;;3.25;2.00;;;;;22.34;39.14;100761.59;5082345;27;45355;-80
2023/03/19 07:51:12;;;;;;;;;3.75;3.00;;;;;22.37;39.19;100772.06;5072520;27;60066;-72
2023/03/19 07:53:37;;;;;;;;;6.50;4.00;;;;;22.34;38.91;100767.78;5080304;27;45580;-71
2023/03/19 07:56:03;;;;;;;;;4.25;4.00;;;;;22.36;38.67;100771.22;5080534;27;55877;-72
2023/03/19 07:58:28;;;;;;;;;3.00;2.75;;;;;22.37;38.83;100769.38;5082151;27;45514;-70
2023/03/19 08:00:54;;;;;;;;;2.25;2.00;;;;;22.33;39.10;100762.59;5078937;27;53262;-70
2023/03/19 08:03:19;;;;;;;;;4.00;2.00;;;;;22.38;39.22;100779.06;5078266;27;45573;-70
2023/03/19 08:05:48;;;;;;;;;4.00;2.00;;;;;22.36;39.27;100773.88;5084573;27;45426;-70
2023/03/19 08:08:16;;;;;;;;;4.75;1.75;;;;;22.35;38.80;100780.16;5093875;27;45809;-71
2023/03/19 08:10:42;;;;;;;;;1.50;1.00;;;;;22.31;39.16;100769.84;5099192;27;45471;-71
2023/03/19 08:13:07;;;;;;;;;4.00;2.25;;;;;22.29;38.97;100761.09;5081936;27;45603;-71
2023/03/19 08:15:33;;;;;;;;;5.25;2.75;;;;;22.37;39.19;100772.88;5094509;27;48078;-71
2023/03/19 08:17:59;;;;;;;;;5.00;3.25;;;;;22.40;39.24;100785.16;5098110;27;45224;-71
2023/03/19 08:20:25;;;;;;;;;4.00;3.00;;;;;22.44;38.93;100783.09;5080455;27;45214;-71
2023/03/19 08:22:50;;;;;;;;;6.50;4.00;;;;;22.46;38.90;100791.84;5060255;28;54129;-71
2023/03/19 08:25:21;;;;;;;;;4.00;4.00;;;;;22.43;38.79;100784.06;5061464;28;47200;-71
2023/03/19 08:27:47;;;;;;;;;6.50;2.25;;;;;22.43;39.10;100781.41;5078131;27;45406;-71
2023/03/19 08:30:15;;;;;;;;;5.00;4.25;;;;;22.45;39.20;100782.13;5064993;28;45536;-71
2023/03/19 08:32:41;;;;;;;;;4.25;2.25;;;;;22.44;38.69;100778.63;5045282;28;45408;-72
2023/03/19 08:35:07;;;;;;;;;5.25;3.00;;;;;22.55;39.06;100794.63;5076167;28;45398;-73
2023/03/19 08:37:32;;;;;;;;;9.00;3.25;;;;;22.59;38.77;100803.25;5067176;27;45458;-71
2023/03/19 08:39:58;;;;;;;;;3.25;3.00;;;;;22.59;39.14;100803.25;5071346;28;68878;-71
2023/03/19 08:42:23;;;;;;;;;2.50;2.00;;;;;22.65;39.03;100810.78;5073950;28;71398;-71
2023/03/19 08:44:49;;;;;;;;;10.25;2.75;;;;;22.69;39.20;100822.06;5072626;28;45340;-71
2023/03/19 08:47:15;;;;;;;;;3.75;3.25;;;;;22.71;38.78;100828.13;5069216;27;45343;-70
2023/03/19 08:49:40;;;;;;;;;4.75;3.00;;;;;22.72;39.18;100824.53;5055754;28;45611;-70
2023/03/19 08:52:06;;;;;;;;;6.25;3.00;;;;;22.77;39.19;100832.16;5064378;28;45348;-74
2023/03/19 08:54:32;;;;;;;;;2.00;1.75;;;;;22.78;38.99;100834.72;5069362;28;46240;-73
2023/03/19 08:56:59;;;;;;;;;6.25;2.25;;;;;22.79;38.73;100841.75;5067870;27;45628;-74
2023/03/19 08:59:25;;;;;;;;;5.00;1.50;;;;;22.84;38.69;100850.25;5073286;27;45839;-73
2023/03/19 09:01:51;;;;;;;;;5.25;3.00;;;;;22.86;38.77;100853.66;5052854;28;45604;-75
2023/03/19 09:04:17;;;;;;;;;6.00;3.00;;;;;22.90;39.05;100862.28;5065482;28;47249;-74
2023/03/19 09:06:43;;;;;;;;;3.75;3.00;;;;;22.89;39.11;100864.06;5048532;28;45703;-74
2023/03/19 09:09:09;;;;;;;;;5.00;3.00;;;;;22.93;39.26;100872.72;5076310;28;45387;-75
2023/03/19 09:11:35;;;;;;;;;4.50;2.25;;;;;22.91;38.69;100871.97;5070665;28;45609;-75
2023/03/19 09:14:00;;;;;;;;;3.00;2.25;;;;;22.93;38.99;100881.56;5053315;28;47140;-75
2023/03/19 09:16:26;;;;;;;;;2.00;1.50;;;;;22.98;39.11;100875.00;5071715;28;45501;-75
2023/03/19 09:18:51;;;;;;;;;1.00;1.00;;;;;22.98;38.64;100889.19;5080107;27;45761;-75
2023/03/19 09:21:16;;;;;;;;;4.00;2.25;;;;;23.00;38.75;100887.28;5069502;28;45593;-75
2023/03/19 09:23:42;;;;;;;;;3.50;2.00;;;;;22.99;38.54;100888.25;5098583;27;46058;-75
2023/03/19 09:26:07;;;;;;;;;3.00;1.25;;;;;23.02;38.42;100881.81;5118883;27;45374;-75
2023/03/19 09:28:33;;;;;;;;;4.75;1.25;;;;;23.02;38.77;100885.34;5123585;27;45464;-75
2023/03/19 09:30:59;;;;;;;;;2.50;1.00;;;;;23.01;38.64;100875.63;5097490;27;45490;-74
2023/03/19 09:33:24;;;;;;;;;3.25;1.50;;;;;23.06;38.34;100886.84;5102534;27;46652;-75
2023/03/19 09:35:51;;;;;;;;;1.50;1.50;;;;;;;;5083156;27;45337;-75
2023/03/19 09:38:17;;;;;;;;;3.00;1.25;;;;;23.05;38.47;100885.13;5122242;27;45394;-75
2023/03/19 09:40:45;;;;;;;;;0.00;0.00;;;;;23.06;38.55;100886.00;5092646;27;45306;-75
2023/03/19 09:43:43;;;;;;;;;1.75;1.25;;;;;23.11;38.44;100898.00;5081084;27;47312;-75
2023/03/19 09:46:17;;;;;;;;;2.00;1.25;;;;;23.10;38.22;100890.13;5078933;27;45954;-75
2023/03/19 09:48:56;;;;;;;;;2.00;2.00;;;;;23.12;38.27;100894.38;5076127;27;45429;-75
2023/03/19 09:51:30;;;;;;;;;3.50;1.25;;;;;23.15;38.56;100901.28;5075658;27;45458;-75
2023/03/19 09:54:02;;;;;;;;;2.00;2.00;;;;;23.15;38.07;100897.78;5076851;27;47171;-75
2023/03/19 09:56:30;;;;;;;;;0.75;0.75;;;;;23.19;37.97;100912.59;5104198;27;45581;-75
2023/03/19 09:58:56;;;;;;;;;1.50;1.25;;;;;23.11;38.37;100895.34;5100444;27;45255;-75
2023/03/19 10:01:25;;;;;;;;;2.75;2.00;;;;;23.20;37.97;100903.63;5080633;27;45572;-75
2023/03/19 10:04:18;;;;;;;;;2.50;1.25;;;;;23.20;38.41;100907.13;5104079;27;46072;-75
2023/03/19 10:06:43;;;;;;;;;1.00;1.00;;;;;23.21;38.36;100908.81;5101875;27;46041;-75
2023/03/19 10:09:44;;;;;;;;;2.25;0.50;;;;;23.23;38.44;100911.38;5100863;27;64665;-75
2023/03/19 10:12:28;;;;;;;;;2.25;2.25;;;;;23.22;38.08;100912.34;5087224;27;45546;-75
2023/03/19 10:15:22;;;;;;;;;1.25;1.25;;;;;23.24;38.35;100910.41;5077551;27;47366;-75
2023/03/19 10:18:16;;;;;;;;;1.00;1.00;;;;;23.26;38.05;100921.81;5098373;27;45355;-75
2023/03/19 10:20:47;;;;;;;;;2.00;2.00;;;;;23.25;38.12;100922.81;5102812;27;45376;-75
2023/03/19 10:23:18;;;;;;;;;4.00;2.25;;;;;23.26;38.14;100930.66;5122083;27;45267;-75
2023/03/19 10:25:43;;;;;;;;;3.00;1.75;;;;;23.25;38.10;100937.00;5083668;27;47060;-75
2023/03/19 10:28:17;;;;;;;;;1.25;1.25;;;;;23.26;38.21;100925.34;5116484;27;73475;-75
2023/03/19 10:30:49;;;;;;;;;0.25;0.25;;;;;23.25;37.99;100929.00;5108895;27;45366;-75
2023/03/19 10:33:23;;;;;;;;;0.50;0.50;;;;;23.27;38.23;100940.41;5092252;27;45397;-75
2023/03/19 10:36:03;;;;;;;;;1.25;1.25;;;;;23.26;38.07;100941.34;5100820;27;45520;-75
2023/03/19 10:38:29;;;;;;;;;1.00;1.00;;;;;23.24;38.18;100935.28;5095985;27;46449;-75
2023/03/19 10:41:01;;;;;;;;;2.25;0.25;;;;;23.26;38.30;100938.69;5120836;27;45388;-75
2023/03/19 10:43:26;;;;;;;;;2.25;2.25;;;;;23.26;37.88;100944.03;5106922;27;45465;-75
2023/03/19 10:45:53;;;;;;;;;2.00;2.00;;;;;23.22;38.03;100939.06;5091775;27;59009;-75
2023/03/19 10:48:18;;;;;;;;;2.50;1.25;;;;;23.25;37.98;100946.84;5101223;27;45347;-75
2023/03/19 10:50:57;;;;;;;;;1.50;0.25;;;;;23.21;38.40;100934.66;5119756;27;63985;-75
2023/03/19 10:53:32;;;;;;;;;2.00;1.25;;;;;23.23;37.95;100949.63;5083533;27;45302;-75
2023/03/19 10:56:21;;;;;;;;;1.50;1.50;;;;;23.22;37.88;100947.06;5085695;27;47856;-75
2023/03/19 10:59:24;;;;;;;;;1.25;1.25;;;;;23.20;38.02;100947.19;5106894;27;45770;-75
2023/03/19 11:01:55;;;;;;;;;3.00;1.25;;;;;23.19;38.48;100952.63;5066424;27;45558;-75
2023/03/19 11:04:22;;;;;;;;;2.25;2.00;;;;;23.18;38.06;100959.81;5114250;27;45346;-75
2023/03/19 11:06:53;;;;;;;;;2.50;1.50;;;;;23.17;37.96;100962.59;5092743;27;48366;-75
2023/03/19 11:09:24;;;;;;;;;1.75;0.50;;;;;23.20;38.02;100970.38;5101584;27;45998;-75
2023/03/19 11:11:52;;;;;;;;;1.25;1.25;;;;;23.21;37.79;100977.41;5079620;27;45419;-75
2023/03/19 11:14:34;;;;;;;;;0.75;0.75;;;;;23.20;38.12;100976.56;5086692;27;45749;-75
2023/03/19 11:17:15;;;;;;;;;2.25;0.25;;;;;23.20;37.77;100978.38;5097781;27;46047;-75
2023/03/19 11:19:42;;;;;;;;;4.00;3.00;;;;;23.17;37.99;100971.44;5103018;27;45957;-75
2023/03/19 11:22:16;;;;;;;;;11.50;5.75;;;;;23.19;37.87;100976.66;5091468;27;45252;-75
2023/03/19 11:24:54;;;;;;;;;3.50;2.50;;;;;23.18;37.67;100967.81;5091308;27;45322;-75
2023/03/19 11:27:28;;;;;;;;;2.00;2.00;;;;;23.20;37.68;100970.38;5099890;27;45506;-75